createdAt,value
2019-03-22T00:01:35.788Z,99399.32
2019-03-22T00:04:09.666Z,99399.32
2019-03-22T00:06:44.799Z,99399.32
2019-03-22T00:09:20.137Z,99402.31
2019-03-22T00:11:55.785Z,99403.59
2019-03-22T00:14:29.390Z,99404.80
2019-03-22T00:17:04.700Z,99401.25
2019-03-22T00:19:40.111Z,99401.25
2019-03-22T00:22:15.692Z,99402.11
2019-03-22T00:24:51.193Z,99392.53
2019-03-22T00:27:26.791Z,99383.55
2019-03-22T00:30:02.299Z,99385.86
2019-03-22T00:32:37.793Z,99381.72
2019-03-22T00:35:15.132Z,99382.31
2019-03-22T00:37:50.637Z,99381.09
2019-03-22T00:40:26.081Z,99381.09
2019-03-22T00:43:01.417Z,99396.30
2019-03-22T00:46:31.367Z,99389.55
2019-03-22T00:49:07.281Z,99388.05
2019-03-22T00:51:42.662Z,99387.23
2019-03-22T00:54:17.918Z,99380.84
2019-03-22T00:56:53.291Z,99384.20
2019-03-22T00:59:28.693Z,99383.97
2019-03-22T01:02:04.132Z,99383.30
2019-03-22T01:04:39.688Z,99382.10
2019-03-22T01:07:14.903Z,99377.95
2019-03-22T01:09:48.578Z,99380.47
2019-03-22T01:12:23.886Z,99380.47
2019-03-22T01:14:57.444Z,99378.80
2019-03-22T01:17:33.732Z,99369.80
2019-03-22T01:20:10.303Z,99371.67
2019-03-22T01:22:46.343Z,99371.90
2019-03-22T01:25:21.894Z,99374.37
2019-03-22T01:27:57.298Z,99371.13
2019-03-22T01:30:32.720Z,99372.64
2019-03-22T01:33:08.295Z,99363.69
2019-03-22T01:35:44.765Z,99365.78
2019-03-22T01:38:20.131Z,99360.75
2019-03-22T01:40:55.670Z,99362.38
2019-03-22T01:43:31.132Z,99362.08
2019-03-22T01:46:06.588Z,99364.95
2019-03-22T01:48:41.908Z,99364.95
2019-03-22T01:51:15.588Z,99361.04
2019-03-22T01:53:51.711Z,99361.04
2019-03-22T01:56:27.267Z,99356.52
2019-03-22T01:59:02.667Z,99352.83
2019-03-22T02:01:36.603Z,99355.81
2019-03-22T02:04:11.781Z,99353.47
2019-03-22T02:06:47.958Z,99358.05
2019-03-22T02:09:23.288Z,99362.97
2019-03-22T02:11:58.785Z,99367.33
2019-03-22T02:14:32.598Z,99357.61
2019-03-22T02:17:07.943Z,99353.00
2019-03-22T02:19:43.371Z,99356.95
2019-03-22T02:22:18.688Z,99360.31
2019-03-22T02:24:55.118Z,99354.42
2019-03-22T02:27:31.571Z,99355.19
2019-03-22T02:30:07.792Z,99355.19
2019-03-22T02:32:42.590Z,99359.39
2019-03-22T02:35:28.391Z,99354.94
2019-03-22T02:37:55.347Z,99362.44
2019-03-22T02:40:31.721Z,99362.44
2019-03-22T02:43:07.286Z,99360.50
2019-03-22T02:45:42.686Z,99359.37
2019-03-22T02:48:18.285Z,99358.58
2019-03-22T02:50:56.162Z,99350.81
2019-03-22T02:53:30.731Z,99362.25
2019-03-22T02:56:04.502Z,99357.95
2019-03-22T02:58:41.410Z,99349.52
2019-03-22T03:01:17.413Z,99355.48
2019-03-22T03:03:52.958Z,99354.31
2019-03-22T03:06:26.614Z,99348.27
2019-03-22T03:09:01.907Z,99348.27
2019-03-22T03:11:38.323Z,99349.43
2019-03-22T03:14:13.675Z,99349.43
2019-03-22T03:16:49.290Z,99339.65
2019-03-22T03:19:24.698Z,99339.65
2019-03-22T03:22:00.286Z,99345.57
2019-03-22T03:24:36.679Z,99341.24
2019-03-22T03:27:12.120Z,99348.67
2019-03-22T03:29:48.687Z,99339.48
2019-03-22T03:32:24.307Z,99339.48
2019-03-22T03:34:59.686Z,99336.39
2019-03-22T03:37:35.292Z,99336.20
2019-03-22T03:40:11.389Z,99333.62
2019-03-22T03:42:46.727Z,99332.53
2019-03-22T03:45:39.377Z,99332.53
2019-03-22T03:48:14.713Z,99342.71
2019-03-22T03:50:50.123Z,99340.14
2019-03-22T03:53:25.712Z,99340.14
2019-03-22T03:56:01.131Z,99343.91
2019-03-22T03:58:51.270Z,99335.03
2019-03-22T04:01:13.690Z,99328.67
2019-03-22T04:03:50.279Z,99340.48
2019-03-22T04:06:25.678Z,99339.72
2019-03-22T04:09:01.081Z,99339.72
2019-03-22T04:11:37.693Z,99345.48
2019-03-22T04:14:13.310Z,99339.53
2019-03-22T04:16:49.782Z,99340.31
2019-03-22T04:19:24.308Z,99348.97
2019-03-22T04:21:59.801Z,99348.83
2019-03-22T04:24:35.278Z,99349.10
2019-03-22T04:27:10.668Z,99349.97
2019-03-22T04:29:46.315Z,99355.09
2019-03-22T04:32:21.695Z,99355.09
2019-03-22T04:34:57.271Z,99353.97
2019-03-22T04:37:32.684Z,99358.13
2019-03-22T04:40:24.686Z,99353.83
2019-03-22T04:43:00.693Z,99360.92
2019-03-22T04:45:38.131Z,99358.25
2019-03-22T04:48:20.860Z,99354.52
2019-03-22T04:50:56.603Z,99354.52
2019-03-22T04:53:37.279Z,99367.34
2019-03-22T04:56:17.702Z,99367.94
2019-03-22T04:58:55.347Z,99377.77
2019-03-22T05:01:32.275Z,99377.77
2019-03-22T05:05:04.296Z,99369.66
2019-03-22T05:07:39.757Z,99367.36
2019-03-22T05:10:17.729Z,99370.72
2019-03-22T05:12:52.650Z,99370.72
2019-03-22T05:15:28.273Z,99379.41
2019-03-22T05:18:04.140Z,99375.82
2019-03-22T05:20:41.722Z,99377.98
2019-03-22T05:23:19.282Z,99380.69
2019-03-22T05:25:57.690Z,99385.25
2019-03-22T05:28:34.325Z,99382.66
2019-03-22T05:32:14.426Z,99376.16
2019-03-22T05:34:49.727Z,99382.38
2019-03-22T05:37:23.363Z,99372.61
2019-03-22T05:39:58.687Z,99380.02
2019-03-22T05:42:32.429Z,99388.20
2019-03-22T05:45:08.306Z,99390.09
2019-03-22T05:47:43.754Z,99389.05
2019-03-22T05:50:17.608Z,99390.09
2019-03-22T05:52:52.883Z,99385.67
2019-03-22T05:55:26.570Z,99385.67
2019-03-22T05:58:02.731Z,99387.98
2019-03-22T06:00:38.273Z,99394.87
2019-03-22T06:03:13.855Z,99394.87
2019-03-22T06:05:47.443Z,99389.80
2019-03-22T06:08:22.940Z,99380.79
2019-03-22T06:10:58.254Z,99380.79
2019-03-22T06:13:33.643Z,99392.69
2019-03-22T06:16:09.092Z,99393.27
2019-03-22T06:18:44.292Z,99392.13
2019-03-22T06:21:19.699Z,99392.13
2019-03-22T06:23:56.281Z,99392.53
2019-03-22T06:26:31.694Z,99402.00
2019-03-22T06:29:07.502Z,99396.95
2019-03-22T06:31:43.788Z,99396.20
2019-03-22T06:34:19.328Z,99403.05
2019-03-22T06:36:54.718Z,99401.80
2019-03-22T06:39:30.116Z,99408.94
2019-03-22T06:42:05.569Z,99408.30
2019-03-22T06:44:40.782Z,99408.30
2019-03-22T06:47:15.893Z,99407.44
2019-03-22T06:49:51.277Z,99395.38
2019-03-22T06:52:26.691Z,99398.89
2019-03-22T06:55:03.090Z,99392.36
2019-03-22T06:57:38.350Z,99398.52
2019-03-22T07:00:14.103Z,99398.52
2019-03-22T07:02:49.645Z,99399.86
2019-03-22T07:05:24.907Z,99397.89
2019-03-22T07:08:00.104Z,99411.94
2019-03-22T07:10:35.339Z,99406.08
2019-03-22T07:13:10.688Z,99402.53
2019-03-22T07:15:46.075Z,99402.53
2019-03-22T07:18:21.332Z,99401.39
2019-03-22T07:20:56.708Z,99394.86
2019-03-22T07:23:30.577Z,99399.65
2019-03-22T07:26:05.710Z,99404.12
2019-03-22T07:28:39.398Z,99400.80
2019-03-22T07:31:14.706Z,99402.30
2019-03-22T07:33:50.100Z,99395.42
2019-03-22T07:36:25.336Z,99404.64
2019-03-22T07:39:00.668Z,99404.64
2019-03-22T07:41:37.100Z,99402.30
2019-03-22T07:44:12.632Z,99408.35
2019-03-22T07:46:48.076Z,99408.35
2019-03-22T07:49:23.325Z,99408.41
2019-03-22T07:51:58.710Z,99405.83
2019-03-22T07:54:32.558Z,99405.83
2019-03-22T07:57:07.704Z,99399.49
2019-03-22T07:59:41.431Z,99402.70
2019-03-22T08:02:16.658Z,99402.70
2019-03-22T08:04:52.107Z,99391.16
2019-03-22T08:07:27.317Z,99389.44
2019-03-22T08:10:02.736Z,99389.44
2019-03-22T08:12:36.275Z,99398.70
2019-03-22T08:15:11.675Z,99400.59
2019-03-22T08:17:47.118Z,99400.59
2019-03-22T08:20:22.694Z,99400.27
2019-03-22T08:22:56.347Z,99394.55
2019-03-22T08:25:32.804Z,99387.92
2019-03-22T08:30:09.744Z,99397.31
2019-03-22T08:32:43.425Z,99397.31
2019-03-22T08:35:18.668Z,99395.79
2019-03-22T08:37:54.232Z,99396.36
2019-03-22T08:40:29.778Z,99398.37
2019-03-22T08:43:05.266Z,99402.06
2019-03-22T08:45:40.681Z,99387.95
2019-03-22T08:48:14.471Z,99385.50
2019-03-22T08:50:49.642Z,99384.50
2019-03-22T08:53:25.883Z,99374.61
2019-03-22T08:56:01.231Z,99373.46
2019-03-22T08:58:36.650Z,99383.02
2019-03-22T09:01:11.941Z,99380.08
2019-03-22T09:03:47.281Z,99379.26
2019-03-22T09:06:22.695Z,99383.11
2019-03-22T09:08:57.878Z,99382.80
2019-03-22T09:11:33.326Z,99381.78
2019-03-22T09:14:08.682Z,99374.72
2019-03-22T09:16:42.369Z,99367.08
2019-03-22T09:19:17.631Z,99366.78
2019-03-22T09:21:52.940Z,99361.36
2019-03-22T09:24:38.615Z,99369.28
2019-03-22T09:27:05.664Z,99369.64
2019-03-22T09:29:39.328Z,99369.64
2019-03-22T09:32:15.309Z,99371.30
2019-03-22T09:34:50.865Z,99371.30
2019-03-22T09:37:26.161Z,99371.88
2019-03-22T09:40:01.767Z,99366.86
2019-03-22T09:42:35.617Z,99364.26
2019-03-22T09:45:14.167Z,99360.93
2019-03-22T09:47:48.332Z,99361.98
2019-03-22T09:50:23.702Z,99363.78
2019-03-22T09:52:57.600Z,99358.05
2019-03-22T09:55:33.748Z,99358.45
2019-03-22T09:58:09.313Z,99365.13
2019-03-22T10:00:46.953Z,99358.38
2019-03-22T10:03:21.804Z,99361.36
2019-03-22T10:05:57.265Z,99359.30
2019-03-22T10:08:32.703Z,99356.23
2019-03-22T10:11:06.443Z,99350.42
2019-03-22T10:13:41.653Z,99349.73
2019-03-22T10:16:16.850Z,99350.17
2019-03-22T10:18:52.184Z,99352.33
2019-03-22T10:21:27.652Z,99347.88
2019-03-22T10:24:03.001Z,99347.88
2019-03-22T10:26:38.698Z,99336.83
2019-03-22T10:29:12.398Z,99336.83
2019-03-22T10:31:47.681Z,99338.47
2019-03-22T10:34:23.932Z,99328.55
2019-03-22T10:36:59.361Z,99318.77
2019-03-22T10:39:34.700Z,99323.05
2019-03-22T10:42:10.083Z,99323.05
2019-03-22T10:44:45.320Z,99311.06
2019-03-22T10:47:20.734Z,99305.94
2019-03-22T10:49:56.372Z,99305.94
2019-03-22T10:52:32.326Z,99310.64
2019-03-22T10:55:28.413Z,99315.02
2019-03-22T10:57:45.311Z,99305.88
2019-03-22T11:00:21.442Z,99305.88
2019-03-22T11:02:56.751Z,99308.26
2019-03-22T11:05:30.366Z,99303.75
2019-03-22T11:08:05.663Z,99303.09
2019-03-22T11:10:40.671Z,99293.70
2019-03-22T11:13:16.110Z,99292.91
2019-03-22T11:15:51.558Z,99285.86
2019-03-22T11:18:36.995Z,99285.86
2019-03-22T11:21:05.761Z,99277.26
2019-03-22T11:23:41.288Z,99277.26
2019-03-22T11:26:16.670Z,99277.44
2019-03-22T11:28:50.347Z,99277.86
2019-03-22T11:31:28.686Z,99260.78
2019-03-22T11:34:02.679Z,99271.62
2019-03-22T11:36:38.270Z,99254.77
2019-03-22T11:39:15.870Z,99254.77
2019-03-22T11:41:51.315Z,99267.64
2019-03-22T11:44:26.730Z,99267.64
2019-03-22T11:47:00.435Z,99265.30
2019-03-22T11:49:36.662Z,99256.84
2019-03-22T11:52:10.283Z,99253.31
2019-03-22T11:54:45.666Z,99245.31
2019-03-22T11:57:19.377Z,99252.31
2019-03-22T11:59:54.667Z,99249.48
2019-03-22T12:02:29.885Z,99238.23
2019-03-22T12:05:05.329Z,99241.52
2019-03-22T12:07:40.671Z,99233.58
2019-03-22T12:10:15.419Z,99237.09
2019-03-22T12:12:50.662Z,99231.56
2019-03-22T12:15:24.593Z,99230.05
2019-03-22T12:17:59.691Z,99217.61
2019-03-22T12:20:33.412Z,99220.76
2019-03-22T12:23:08.684Z,99224.55
2019-03-22T12:25:42.532Z,99216.87
2019-03-22T12:28:17.679Z,99220.09
2019-03-22T12:30:51.317Z,99210.02
2019-03-22T12:33:26.324Z,99205.59
2019-03-22T12:36:01.661Z,99205.59
2019-03-22T12:38:37.755Z,99193.31
2019-03-22T12:41:11.340Z,99190.67
2019-03-22T12:43:46.654Z,99186.05
2019-03-22T12:46:21.793Z,99177.30
2019-03-22T12:48:57.281Z,99175.78
2019-03-22T12:51:32.649Z,99170.52
2019-03-22T12:54:06.601Z,99168.70
2019-03-22T12:56:41.690Z,99162.52
2019-03-22T12:59:15.286Z,99163.39
2019-03-22T13:01:50.319Z,99156.51
2019-03-22T13:04:25.707Z,99156.51
2019-03-22T13:06:59.344Z,99143.28
2019-03-22T13:09:34.611Z,99152.73
2019-03-22T13:12:08.275Z,99152.73
2019-03-22T13:14:43.634Z,99147.37
2019-03-22T13:17:17.338Z,99147.37
2019-03-22T13:19:52.678Z,99133.65
2019-03-22T13:22:26.278Z,99133.65
2019-03-22T13:25:01.599Z,99134.79
2019-03-22T13:27:35.352Z,99134.79
2019-03-22T13:30:10.918Z,99129.92
2019-03-22T13:32:52.174Z,99130.27
2019-03-22T13:35:23.329Z,99119.54
2019-03-22T13:37:58.655Z,99115.84
2019-03-22T13:40:32.351Z,99101.91
2019-03-22T13:43:07.623Z,99101.91
2019-03-22T13:45:42.786Z,99110.17
2019-03-22T13:48:18.142Z,99100.34
2019-03-22T13:50:53.686Z,99099.34
2019-03-22T13:53:27.281Z,99095.14
2019-03-22T13:56:02.353Z,99091.88
2019-03-22T13:58:37.758Z,99091.88
2019-03-22T14:01:11.317Z,99090.09
2019-03-22T14:03:46.687Z,99080.50
2019-03-22T14:06:20.436Z,99077.89
2019-03-22T14:08:55.665Z,99072.47
2019-03-22T14:11:29.345Z,99063.56
2019-03-22T14:14:04.681Z,99064.27
2019-03-22T14:16:38.382Z,99064.64
2019-03-22T14:19:13.693Z,99061.59
2019-03-22T14:21:47.353Z,99054.42
2019-03-22T14:24:22.657Z,99052.02
2019-03-22T14:26:57.888Z,99052.62
2019-03-22T14:29:34.244Z,99044.53
2019-03-22T14:32:09.689Z,99039.13
2019-03-22T14:34:43.323Z,99025.29
2019-03-22T14:37:18.592Z,99031.98
2019-03-22T14:39:53.758Z,99031.98
2019-03-22T14:42:28.272Z,99024.98
2019-03-22T14:45:03.660Z,99012.95
2019-03-22T14:47:37.354Z,99012.95
2019-03-22T14:50:13.323Z,99016.74
2019-03-22T14:52:48.784Z,99007.85
2019-03-22T14:55:24.256Z,99007.46
2019-03-22T14:58:00.366Z,99003.97
2019-03-22T15:00:36.276Z,99008.09
2019-03-22T15:03:28.269Z,99002.91
2019-03-22T15:06:04.703Z,99005.34
2019-03-22T15:08:40.336Z,98993.73
2019-03-22T15:11:16.873Z,98993.73
2019-03-22T15:14:00.299Z,98984.56
2019-03-22T15:16:57.338Z,98984.56
2019-03-22T15:19:58.691Z,98992.70
2019-03-22T15:22:57.066Z,98990.27
2019-03-22T15:26:06.821Z,98994.49
2019-03-22T15:29:00.095Z,98997.23
2019-03-22T15:32:06.662Z,98999.72
2019-03-22T15:34:59.942Z,98993.04
2019-03-22T15:37:54.283Z,98993.22
2019-03-22T15:40:29.952Z,98982.63
2019-03-22T15:43:05.345Z,98983.34
2019-03-22T15:45:40.678Z,98979.37
2019-03-22T15:48:15.953Z,98977.35
2019-03-22T15:51:07.641Z,98979.61
2019-03-22T15:54:01.269Z,98979.19
2019-03-22T15:56:54.299Z,98975.45
2019-03-22T15:59:47.919Z,98967.62
2019-03-22T16:02:41.283Z,98970.36
2019-03-22T16:06:20.704Z,98967.50
2019-03-22T16:09:14.135Z,98974.30
2019-03-22T16:13:00.350Z,98971.39
2019-03-22T16:15:53.945Z,98966.19
2019-03-22T16:18:47.787Z,98975.95
2019-03-22T16:21:40.938Z,98978.56
2019-03-22T16:24:32.599Z,98974.02
2019-03-22T16:27:25.664Z,98970.53
2019-03-22T16:30:19.874Z,98970.53
2019-03-22T16:33:11.622Z,98976.32
2019-03-22T16:36:05.334Z,98970.33
2019-03-22T16:38:59.285Z,98979.97
2019-03-22T16:41:52.981Z,98983.47
2019-03-22T16:44:44.716Z,98979.52
2019-03-22T16:47:38.650Z,98985.66
2019-03-22T16:50:32.300Z,98978.53
2019-03-22T16:53:25.376Z,98981.14
2019-03-22T16:56:19.942Z,98981.83
2019-03-22T16:59:11.601Z,98981.83
2019-03-22T17:02:04.734Z,98992.67
2019-03-22T17:04:58.105Z,98992.67
2019-03-22T17:07:51.692Z,98985.48
2019-03-22T17:10:45.378Z,98990.98
2019-03-22T17:13:39.279Z,98984.70
2019-03-22T17:16:34.272Z,98987.63
2019-03-22T17:19:28.275Z,98990.06
2019-03-22T17:22:21.420Z,98990.06
2019-03-22T17:25:14.671Z,98988.00
2019-03-22T17:28:06.673Z,98988.59
2019-03-22T17:30:59.339Z,98986.31
2019-03-22T17:33:53.274Z,98986.31
2019-03-22T17:36:47.272Z,98983.42
2019-03-22T17:39:40.857Z,98990.30
2019-03-22T17:42:34.126Z,98981.33
2019-03-22T17:45:27.192Z,98988.66
2019-03-22T17:48:21.275Z,98987.42
2019-03-22T17:51:15.271Z,98987.42
2019-03-22T17:54:09.278Z,98987.78
2019-03-22T17:57:02.754Z,98995.20
2019-03-22T17:59:56.354Z,98995.20
2019-03-22T18:02:50.275Z,98997.91
2019-03-22T18:05:44.280Z,98994.03
2019-03-22T18:08:38.942Z,98996.69
2019-03-22T18:11:32.391Z,99003.80
2019-03-22T18:14:27.027Z,99003.80
2019-03-22T18:17:20.269Z,99008.96
2019-03-22T18:20:13.780Z,99005.47
2019-03-22T18:23:06.880Z,99007.59
2019-03-22T18:25:59.940Z,99004.34
2019-03-22T18:28:51.590Z,99006.73
2019-03-22T18:31:44.661Z,99004.99
2019-03-22T18:34:37.919Z,99004.99
2019-03-22T18:37:30.811Z,99009.75
2019-03-22T18:40:22.413Z,99006.19
2019-03-22T18:43:15.277Z,99011.34
2019-03-22T18:46:08.260Z,99009.25
2019-03-22T18:49:01.286Z,99009.25
2019-03-22T18:51:54.603Z,99008.80
2019-03-22T18:54:48.582Z,99009.79
2019-03-22T18:57:41.712Z,99009.08
2019-03-22T19:00:35.274Z,99009.08
2019-03-22T19:03:28.915Z,99011.88
2019-03-22T19:06:22.354Z,99011.70
2019-03-22T19:09:15.694Z,99016.34
2019-03-22T19:12:08.941Z,99010.59
2019-03-22T19:15:02.279Z,99014.19
2019-03-22T19:17:56.741Z,99013.93
2019-03-22T19:20:50.356Z,99009.59
2019-03-22T19:23:43.490Z,99009.59
2019-03-22T19:26:36.346Z,99009.22
2019-03-22T19:29:29.302Z,98996.98
2019-03-22T19:32:22.253Z,98996.98
2019-03-22T19:35:17.257Z,99006.95
2019-03-22T19:38:10.772Z,99005.70
2019-03-22T19:41:03.900Z,99005.70
2019-03-22T19:43:57.311Z,99002.18
2019-03-22T19:46:51.073Z,99001.45
2019-03-22T19:49:44.299Z,98998.73
2019-03-22T19:52:36.707Z,99006.08
2019-03-22T19:55:29.890Z,99011.43
2019-03-22T19:58:22.889Z,99007.70
2019-03-22T20:01:16.373Z,99007.70
2019-03-22T20:04:10.079Z,99002.19
2019-03-22T20:07:01.627Z,99002.19
2019-03-22T20:09:54.881Z,99002.69
2019-03-22T20:12:47.913Z,99001.18
2019-03-22T20:15:39.597Z,98998.14
2019-03-22T20:18:32.370Z,98998.14
2019-03-22T20:21:25.660Z,98989.84
2019-03-22T20:24:18.788Z,98989.84
2019-03-22T20:27:10.454Z,98990.81
2019-03-22T20:30:03.479Z,98995.94
2019-03-22T20:32:56.762Z,98989.11
2019-03-22T20:35:48.534Z,98989.27
2019-03-22T20:38:41.958Z,98988.19
2019-03-22T20:41:35.673Z,98975.36
2019-03-22T20:44:33.752Z,98975.36
2019-03-22T20:47:26.337Z,98977.72
2019-03-22T20:50:19.788Z,98964.04
2019-03-22T20:53:13.298Z,98964.04
2019-03-22T20:56:06.784Z,98969.63
2019-03-22T20:59:00.329Z,98968.88
2019-03-22T21:01:53.287Z,98966.25
2019-03-22T21:04:46.955Z,98967.22
2019-03-22T21:07:40.286Z,98967.22
2019-03-22T21:10:33.386Z,98965.70
2019-03-22T21:13:26.889Z,98965.05
2019-03-22T21:16:20.291Z,98965.05
2019-03-22T21:19:13.243Z,98964.23
2019-03-22T21:22:05.512Z,98963.19
2019-03-22T21:24:58.327Z,98956.83
2019-03-22T21:27:52.281Z,98953.73
2019-03-22T21:30:45.849Z,98953.73
2019-03-22T21:33:39.330Z,98958.42
2019-03-22T21:36:32.582Z,98960.78
2019-03-22T21:39:25.959Z,98963.10
2019-03-22T21:42:19.293Z,98963.10
2019-03-22T21:45:13.320Z,98957.83
2019-03-22T21:48:06.711Z,98957.83
2019-03-22T21:50:58.428Z,98959.41
2019-03-22T21:55:27.960Z,98960.31
2019-03-22T21:58:21.461Z,98963.14
2019-03-22T22:01:14.921Z,98963.14
2019-03-22T22:04:06.427Z,98956.44
2019-03-22T22:06:57.874Z,98961.86
2019-03-22T22:09:50.885Z,98961.86
2019-03-22T22:12:46.002Z,98957.70
2019-03-22T22:15:39.462Z,98959.72
2019-03-22T22:18:32.304Z,98954.98
2019-03-22T22:21:25.283Z,98954.98
2019-03-22T22:24:18.148Z,98955.35
2019-03-22T22:27:13.930Z,98956.00
2019-03-22T22:30:07.298Z,98954.44
2019-03-22T22:32:58.669Z,98955.84
2019-03-22T22:35:58.594Z,98944.22
2019-03-22T22:38:47.118Z,98937.09
2019-03-22T22:41:40.343Z,98946.67
2019-03-22T22:44:33.658Z,98937.51
2019-03-22T22:47:26.899Z,98937.51
2019-03-22T22:50:24.357Z,98929.35
2019-03-22T22:53:17.679Z,98923.31
2019-03-22T22:56:09.336Z,98923.31
2019-03-22T22:59:02.792Z,98927.64
2019-03-22T23:01:56.567Z,98920.60
2019-03-22T23:04:49.770Z,98920.60
2019-03-22T23:07:42.929Z,98927.56
2019-03-22T23:10:34.444Z,98925.11
2019-03-22T23:13:27.291Z,98923.88
2019-03-22T23:16:20.422Z,98916.37
2019-03-22T23:19:13.634Z,98911.75
2019-03-22T23:22:07.323Z,98911.75
2019-03-22T23:25:00.358Z,98909.74
2019-03-22T23:27:51.622Z,98909.61
2019-03-22T23:30:44.700Z,98914.27
2019-03-22T23:33:37.862Z,98903.59
2019-03-22T23:36:30.712Z,98902.83
2019-03-22T23:39:23.881Z,98900.52
2019-03-22T23:42:16.678Z,98900.52
2019-03-22T23:45:09.937Z,98901.45
2019-03-22T23:48:02.837Z,98899.12
2019-03-22T23:50:55.957Z,98891.70
2019-03-22T23:53:49.298Z,98899.58
2019-03-22T23:56:42.756Z,98887.22
2019-03-22T23:59:36.141Z,98892.18
